Time,TemperatureF,DewpointF,PressureIn,WindDirection,WindDirectionDegrees,WindSpeedMPH,WindSpeedGustMPH,Humidity,HourlyPrecipIn,Conditions,Clouds,dailyrainin,SoftwareType,DateUTC
2013-01-25 00:03:00,-999.0,-99.9,30.15,North,-999,-999.0,-999.0,-999,0.00,,,0.00,weatherlink.com 1.10,2013-01-25 08:03:00,
2013-01-25 00:17:00,-999.0,-99.9,30.15,North,-999,-999.0,-999.0,-999,0.00,,,0.00,weatherlink.com 1.10,2013-01-25 08:17:00,
2013-01-25 00:32:00,-999.0,-99.9,30.15,North,-999,-999.0,-999.0,-999,0.00,,,0.00,weatherlink.com 1.10,2013-01-25 08:32:00,
2013-01-25 00:47:00,-999.0,-99.9,30.15,North,-999,-999.0,-999.0,-999,0.00,,,0.00,weatherlink.com 1.10,2013-01-25 08:47:00,
2013-01-25 01:02:00,-999.0,-99.9,30.15,North,-999,-999.0,-999.0,-999,0.00,,,0.00,weatherlink.com 1.10,2013-01-25 09:02:00,
2013-01-25 01:18:00,-999.0,-99.9,30.15,North,-999,-999.0,-999.0,-999,0.00,,,0.00,weatherlink.com 1.10,2013-01-25 09:18:00,
2013-01-25 01:32:00,-999.0,-99.9,30.15,North,-999,-999.0,-999.0,-999,0.00,,,0.00,weatherlink.com 1.10,2013-01-25 09:32:00,
2013-01-25 01:48:00,-999.0,-99.9,30.15,North,-999,-999.0,-999.0,-999,0.00,,,0.00,weatherlink.com 1.10,2013-01-25 09:48:00,
2013-01-25 02:03:00,-999.0,-99.9,30.15,North,-999,-999.0,-999.0,-999,0.00,,,0.00,weatherlink.com 1.10,2013-01-25 10:03:00,
2013-01-25 02:18:00,-999.0,-99.9,30.15,North,-999,-999.0,-999.0,-999,0.00,,,0.00,weatherlink.com 1.10,2013-01-25 10:18:00,
2013-01-25 02:33:00,-999.0,-99.9,30.15,North,-999,-999.0,-999.0,-999,0.00,,,0.00,weatherlink.com 1.10,2013-01-25 10:33:00,
2013-01-25 02:48:00,-999.0,-99.9,30.15,North,-999,-999.0,-999.0,-999,0.00,,,0.00,weatherlink.com 1.10,2013-01-25 10:48:00,
2013-01-25 03:03:00,-999.0,-99.9,30.15,North,-999,-999.0,-999.0,-999,0.00,,,0.00,weatherlink.com 1.10,2013-01-25 11:03:00,
2013-01-25 03:18:00,-999.0,-99.9,30.15,North,-999,-999.0,-999.0,-999,0.00,,,0.00,weatherlink.com 1.10,2013-01-25 11:18:00,
2013-01-25 03:33:00,-999.0,-99.9,30.14,North,-999,-999.0,-999.0,-999,0.00,,,0.00,weatherlink.com 1.10,2013-01-25 11:33:00,
2013-01-25 03:48:00,-999.0,-99.9,30.14,North,-999,-999.0,-999.0,-999,0.00,,,0.00,weatherlink.com 1.10,2013-01-25 11:48:00,
2013-01-25 04:03:00,-999.0,-99.9,30.14,North,-999,-999.0,-999.0,-999,0.00,,,0.00,weatherlink.com 1.10,2013-01-25 12:03:00,
2013-01-25 04:18:00,-999.0,-99.9,30.13,North,-999,-999.0,-999.0,-999,0.00,,,0.00,weatherlink.com 1.10,2013-01-25 12:18:00,
2013-01-25 04:34:00,-999.0,-99.9,30.13,North,-999,-999.0,-999.0,-999,0.00,,,0.00,weatherlink.com 1.10,2013-01-25 12:34:00,
2013-01-25 04:48:00,-999.0,-99.9,30.12,North,-999,-999.0,-999.0,-999,0.00,,,0.00,weatherlink.com 1.10,2013-01-25 12:48:00,
2013-01-25 05:03:00,-999.0,-99.9,30.12,North,-999,-999.0,-999.0,-999,0.00,,,0.00,weatherlink.com 1.10,2013-01-25 13:03:00,
2013-01-25 05:19:00,-999.0,-99.9,30.12,North,-999,-999.0,-999.0,-999,0.00,,,0.00,weatherlink.com 1.10,2013-01-25 13:19:00,
2013-01-25 05:34:00,-999.0,-99.9,30.12,North,-999,-999.0,-999.0,-999,0.00,,,0.00,weatherlink.com 1.10,2013-01-25 13:34:00,
2013-01-25 05:49:00,-999.0,-99.9,30.12,North,-999,-999.0,-999.0,-999,0.00,,,0.00,weatherlink.com 1.10,2013-01-25 13:49:00,
2013-01-25 06:04:00,-999.0,-99.9,30.12,North,-999,-999.0,-999.0,-999,0.00,,,0.00,weatherlink.com 1.10,2013-01-25 14:04:00,
2013-01-25 06:19:00,-999.0,-99.9,30.13,North,-999,-999.0,-999.0,-999,0.00,,,0.00,weatherlink.com 1.10,2013-01-25 14:19:00,
2013-01-25 06:34:00,-999.0,-99.9,30.13,North,-999,-999.0,-999.0,-999,0.00,,,0.00,weatherlink.com 1.10,2013-01-25 14:34:00,
2013-01-25 06:49:00,-999.0,-99.9,30.13,North,-999,-999.0,-999.0,-999,0.00,,,0.00,weatherlink.com 1.10,2013-01-25 14:49:00,
2013-01-25 07:04:00,-999.0,-99.9,30.13,North,-999,-999.0,-999.0,-999,0.00,,,0.00,weatherlink.com 1.10,2013-01-25 15:04:00,
2013-01-25 07:19:00,-999.0,-99.9,30.13,North,-999,-999.0,-999.0,-999,0.00,,,0.00,weatherlink.com 1.10,2013-01-25 15:19:00,
2013-01-25 07:34:00,-999.0,-99.9,30.12,North,-999,-999.0,-999.0,-999,0.00,,,0.00,weatherlink.com 1.10,2013-01-25 15:34:00,
2013-01-25 07:50:00,-999.0,-99.9,30.12,North,-999,-999.0,-999.0,-999,0.00,,,0.00,weatherlink.com 1.10,2013-01-25 15:50:00,
2013-01-25 08:04:00,-999.0,-99.9,30.12,North,-999,-999.0,-999.0,-999,0.00,,,0.00,weatherlink.com 1.10,2013-01-25 16:04:00,
2013-01-25 08:19:00,-999.0,-99.9,30.12,North,-999,-999.0,-999.0,-999,0.00,,,0.00,weatherlink.com 1.10,2013-01-25 16:19:00,
2013-01-25 08:34:00,-999.0,-99.9,30.12,North,-999,-999.0,-999.0,-999,0.00,,,0.00,weatherlink.com 1.10,2013-01-25 16:34:00,
2013-01-25 08:49:00,-999.0,-99.9,30.13,North,-999,-999.0,-999.0,-999,0.00,,,0.00,weatherlink.com 1.10,2013-01-25 16:49:00,
2013-01-25 09:05:00,-999.0,-99.9,30.13,North,-999,-999.0,-999.0,-999,0.00,,,0.00,weatherlink.com 1.10,2013-01-25 17:05:00,
2013-01-25 09:20:00,-999.0,-99.9,30.13,North,-999,-999.0,-999.0,-999,0.00,,,0.00,weatherlink.com 1.10,2013-01-25 17:20:00,
2013-01-25 09:35:00,-999.0,-99.9,30.13,North,-999,-999.0,-999.0,-999,0.00,,,0.00,weatherlink.com 1.10,2013-01-25 17:35:00,
2013-01-25 09:50:00,-999.0,-99.9,30.13,North,-999,-999.0,-999.0,-999,0.00,,,0.00,weatherlink.com 1.10,2013-01-25 17:50:00,
2013-01-25 10:05:00,54.1,54.0,30.13,SSE,152,0.0,0.0,99,0.00,,,0.00,weatherlink.com 1.10,2013-01-25 18:05:00,
2013-01-25 10:20:00,54.7,55.0,30.14,SSE,152,0.0,0.0,99,0.00,,,0.00,weatherlink.com 1.10,2013-01-25 18:20:00,
2013-01-25 10:35:00,55.2,55.0,30.13,SSE,152,0.0,0.0,99,0.00,,,0.00,weatherlink.com 1.10,2013-01-25 18:35:00,
2013-01-25 10:50:00,55.6,55.0,30.13,SSE,152,0.0,0.0,99,0.00,,,0.00,weatherlink.com 1.10,2013-01-25 18:50:00,
2013-01-25 11:05:00,56.3,56.0,30.12,SSE,152,0.0,0.0,99,0.00,,,0.00,weatherlink.com 1.10,2013-01-25 19:05:00,
2013-01-25 11:20:00,57.0,57.0,30.11,SSE,152,0.0,0.0,99,0.00,,,0.00,weatherlink.com 1.10,2013-01-25 19:20:00,
2013-01-25 11:35:00,57.4,57.0,30.11,SSE,152,0.0,0.0,99,0.00,,,0.00,weatherlink.com 1.10,2013-01-25 19:35:00,
2013-01-25 11:50:00,57.8,58.0,30.09,SSW,205,0.0,0.0,99,0.00,,,0.00,weatherlink.com 1.10,2013-01-25 19:50:00,
2013-01-25 12:05:00,57.8,58.0,30.08,SSW,203,0.0,0.0,99,0.00,,,0.00,weatherlink.com 1.10,2013-01-25 20:05:00,
2013-01-25 12:20:00,58.1,58.0,30.07,SSW,205,0.0,0.0,99,0.00,,,0.00,weatherlink.com 1.10,2013-01-25 20:20:00,
2013-01-25 12:36:00,58.2,58.0,30.06,SSW,211,0.0,0.0,99,0.00,,,0.00,weatherlink.com 1.10,2013-01-25 20:36:00,
2013-01-25 12:50:00,58.4,58.0,30.05,SSW,211,0.0,0.0,99,0.00,,,0.00,weatherlink.com 1.10,2013-01-25 20:50:00,
2013-01-25 13:05:00,58.3,58.0,30.05,SSW,212,0.0,0.0,98,0.00,,,0.00,weatherlink.com 1.10,2013-01-25 21:05:00,
2013-01-25 13:20:00,58.3,58.0,30.04,SSW,211,0.0,0.0,98,0.00,,,0.00,weatherlink.com 1.10,2013-01-25 21:20:00,
2013-01-25 13:35:00,58.4,58.0,30.04,SSW,211,0.0,0.0,98,0.00,,,0.00,weatherlink.com 1.10,2013-01-25 21:35:00,
2013-01-25 13:50:00,58.3,58.0,30.03,SSW,211,0.0,0.0,98,0.00,,,0.00,weatherlink.com 1.10,2013-01-25 21:50:00,
2013-01-25 14:06:00,58.1,58.0,30.03,SSW,211,0.0,0.0,98,0.00,,,0.00,weatherlink.com 1.10,2013-01-25 22:06:00,
2013-01-25 14:20:00,58.0,58.0,30.03,SSW,212,0.0,0.0,98,0.00,,,0.00,weatherlink.com 1.10,2013-01-25 22:20:00,
2013-01-25 14:35:00,57.8,57.0,30.03,ESE,122,0.0,0.0,98,0.00,,,0.00,weatherlink.com 1.10,2013-01-25 22:35:00,
2013-01-25 14:50:00,58.0,58.0,30.03,ESE,122,0.0,0.0,98,0.00,,,0.00,weatherlink.com 1.10,2013-01-25 22:50:00,
2013-01-25 15:05:00,57.8,57.0,30.03,ESE,122,0.0,0.0,98,0.00,,,0.00,weatherlink.com 1.10,2013-01-25 23:05:00,
2013-01-25 15:21:00,57.8,57.0,30.02,ESE,122,0.0,0.0,98,0.00,,,0.00,weatherlink.com 1.10,2013-01-25 23:21:00,
2013-01-25 15:36:00,57.9,57.0,30.02,SE,124,0.0,0.0,98,0.00,,,0.00,weatherlink.com 1.10,2013-01-25 23:36:00,
2013-01-25 15:51:00,57.6,57.0,30.02,ESE,123,0.0,0.0,97,0.00,,,0.00,weatherlink.com 1.10,2013-01-25 23:51:00,
2013-01-25 16:06:00,57.5,56.0,30.02,SSW,201,0.0,0.0,96,0.00,,,0.00,weatherlink.com 1.10,2013-01-26 00:06:00,
2013-01-25 16:21:00,57.6,57.0,30.01,South,171,0.0,0.0,96,0.00,,,0.00,weatherlink.com 1.10,2013-01-26 00:21:00,
2013-01-25 16:36:00,57.8,56.0,30.01,SE,138,1.0,2.0,93,0.00,,,0.00,weatherlink.com 1.10,2013-01-26 00:36:00,
2013-01-25 16:51:00,57.3,56.0,30.01,SE,129,0.0,1.0,94,0.00,,,0.00,weatherlink.com 1.10,2013-01-26 00:51:00,
2013-01-25 17:06:00,56.6,55.0,30.01,SSE,155,0.0,1.0,95,0.00,,,0.00,weatherlink.com 1.10,2013-01-26 01:06:00,
2013-01-25 17:21:00,56.0,55.0,30.02,SSE,155,0.0,1.0,96,0.00,,,0.00,weatherlink.com 1.10,2013-01-26 01:21:00,
2013-01-25 17:36:00,55.5,54.0,30.01,SSE,155,0.0,1.0,96,0.00,,,0.00,weatherlink.com 1.10,2013-01-26 01:36:00,
2013-01-25 17:51:00,55.1,54.0,30.01,ESE,114,0.0,0.0,96,0.00,,,0.00,weatherlink.com 1.10,2013-01-26 01:51:00,
2013-01-25 18:06:00,54.5,53.0,30.01,ESE,114,0.0,0.0,96,0.00,,,0.00,weatherlink.com 1.10,2013-01-26 02:06:00,
2013-01-25 18:21:00,54.0,53.0,30.02,ESE,115,0.0,0.0,97,0.00,,,0.00,weatherlink.com 1.10,2013-01-26 02:21:00,
2013-01-25 18:36:00,54.0,53.0,30.01,ESE,114,0.0,0.0,97,0.00,,,0.00,weatherlink.com 1.10,2013-01-26 02:36:00,
2013-01-25 18:51:00,53.4,53.0,30.01,ESE,114,0.0,0.0,97,0.00,,,0.00,weatherlink.com 1.10,2013-01-26 02:51:00,
2013-01-25 19:06:00,52.9,52.0,30.02,ESE,115,0.0,0.0,97,0.00,,,0.00,weatherlink.com 1.10,2013-01-26 03:06:00,
2013-01-25 19:21:00,52.5,52.0,30.02,SSW,193,0.0,0.0,97,0.00,,,0.00,weatherlink.com 1.10,2013-01-26 03:21:00,
2013-01-25 19:36:00,52.1,51.0,30.01,SSE,150,0.0,1.0,97,0.00,,,0.00,weatherlink.com 1.10,2013-01-26 03:36:00,
2013-01-25 19:51:00,51.7,51.0,30.02,SSE,150,0.0,0.0,97,0.00,,,0.00,weatherlink.com 1.10,2013-01-26 03:51:00,
2013-01-25 20:06:00,51.4,51.0,30.01,SSE,150,0.0,0.0,97,0.00,,,0.00,weatherlink.com 1.10,2013-01-26 04:06:00,
2013-01-25 20:21:00,51.0,50.0,30.02,SSE,150,0.0,0.0,97,0.00,,,0.00,weatherlink.com 1.10,2013-01-26 04:21:00,
2013-01-25 20:36:00,50.7,50.0,30.02,SSE,150,0.0,0.0,98,0.00,,,0.00,weatherlink.com 1.10,2013-01-26 04:36:00,
2013-01-25 20:51:00,50.5,50.0,30.02,SSE,150,0.0,0.0,98,0.00,,,0.00,weatherlink.com 1.10,2013-01-26 04:51:00,
2013-01-25 21:06:00,50.3,50.0,30.02,SSE,149,0.0,0.0,98,0.00,,,0.00,weatherlink.com 1.10,2013-01-26 05:06:00,
2013-01-25 21:21:00,49.9,49.0,30.02,SSE,149,0.0,0.0,98,0.00,,,0.00,weatherlink.com 1.10,2013-01-26 05:21:00,
2013-01-25 21:36:00,49.7,49.0,30.02,SSE,150,0.0,0.0,98,0.00,,,0.00,weatherlink.com 1.10,2013-01-26 05:36:00,
2013-01-25 21:51:00,49.5,49.0,30.03,SSE,149,0.0,0.0,98,0.00,,,0.00,weatherlink.com 1.10,2013-01-26 05:51:00,
2013-01-25 22:06:00,49.5,49.0,30.03,SSE,150,0.0,0.0,98,0.00,,,0.00,weatherlink.com 1.10,2013-01-26 06:06:00,
2013-01-25 22:21:00,49.4,49.0,30.02,SSE,150,0.0,0.0,98,0.00,,,0.00,weatherlink.com 1.10,2013-01-26 06:21:00,
2013-01-25 22:36:00,49.2,49.0,30.03,SSE,149,0.0,0.0,98,0.00,,,0.00,weatherlink.com 1.10,2013-01-26 06:36:00,
2013-01-25 22:51:00,49.0,49.0,30.03,SSE,149,0.0,0.0,98,0.00,,,0.00,weatherlink.com 1.10,2013-01-26 06:51:00,
2013-01-25 23:06:00,49.0,49.0,30.03,SSE,150,0.0,0.0,98,0.00,,,0.00,weatherlink.com 1.10,2013-01-26 07:06:00,
2013-01-25 23:21:00,48.9,48.0,30.03,SSE,150,0.0,0.0,98,0.00,,,0.00,weatherlink.com 1.10,2013-01-26 07:21:00,
2013-01-25 23:36:00,48.8,48.0,30.02,SSE,149,0.0,0.0,98,0.00,,,0.00,weatherlink.com 1.10,2013-01-26 07:36:00,
2013-01-25 23:51:00,-999.0,-99.9,30.02,North,-999,-999.0,-999.0,-999,0.00,,,0.00,weatherlink.com 1.10,2013-01-26 07:51:00,